Time;durP1;ratioP1;P1;durP2;ratioP2;P2;SDS_P1;SDS_P2;PMS_P1;PMS_P2;Temp;Humidity;BMP_temperature;BMP_pressure;BME280_temperature;BME280_humidity;BME280_pressure;Samples;Min_cycle;Max_cycle;Signal;HPM_P1;HPM_P2
2021/01/01 00:03:57;;;;;;;61.03;23.45;;;;;;;2.17;66.89;99164.22;10420736;28;20049;-57
2021/01/01 00:08:59;;;;;;;52.17;22.52;;;;;;;2.23;66.73;99178.59;10420372;28;20099;-57
2021/01/01 00:14:01;;;;;;;55.25;21.33;;;;;;;2.14;66.55;99161.81;10422576;28;20462;-56
2021/01/01 00:19:03;;;;;;;54.90;23.02;;;;;;;2.17;66.95;99168.59;10420978;28;20065;-54
2021/01/01 00:24:07;;;;;;;47.17;19.65;;;;;;;2.17;66.28;99169.41;10418853;28;20052;-57
2021/01/01 00:29:08;;;;;;;65.28;23.90;;;;;;;2.22;66.28;99164.81;10418948;28;20053;-56
2021/01/01 00:34:11;;;;;;;47.60;18.13;;;;;;;2.21;65.85;99170.06;10419309;28;20067;-55
2021/01/01 00:39:12;;;;;;;60.13;23.38;;;;;;;2.24;66.03;99170.72;10419193;28;20068;-55
2021/01/01 00:44:14;;;;;;;45.30;19.35;;;;;;;2.21;65.70;99168.31;10418495;28;20041;-56
2021/01/01 00:49:16;;;;;;;46.47;19.45;;;;;;;2.25;66.71;99162.03;10418810;28;20057;-54
2021/01/01 00:54:18;;;;;;;40.92;19.17;;;;;;;2.44;66.47;99164.34;10418947;28;20045;-55
2021/01/01 00:59:20;;;;;;;43.30;18.30;;;;;;;2.48;66.00;99157.22;10417638;28;20057;-56
2021/01/01 01:04:22;;;;;;;37.10;14.88;;;;;;;2.40;65.91;99143.84;10417797;28;20037;-54
2021/01/01 01:09:25;;;;;;;32.30;12.80;;;;;;;2.54;66.01;99143.88;10417892;28;20131;-56
2021/01/01 01:14:26;;;;;;;27.98;11.07;;;;;;;2.52;65.36;99138.78;10418757;28;20061;-55
2021/01/01 01:19:29;;;;;;;35.83;13.80;;;;;;;2.24;65.55;99146.53;10417372;28;20053;-56
2021/01/01 01:24:30;;;;;;;34.65;14.23;;;;;;;1.97;66.58;99141.22;10432829;28;20148;-56
2021/01/01 01:29:32;;;;;;;17.55;6.25;;;;;;;1.97;65.98;99142.09;10416904;28;20127;-55
2021/01/01 01:34:34;;;;;;;41.28;13.13;;;;;;;1.86;66.43;99133.28;10416080;28;20434;-55
2021/01/01 01:39:36;;;;;;;29.52;10.27;;;;;;;1.84;66.46;99147.13;10417717;28;20061;-55
2021/01/01 01:44:38;;;;;;;40.72;17.02;;;;;;;1.94;66.72;99137.09;10416920;28;20049;-56
2021/01/01 01:49:40;;;;;;;41.42;16.52;;;;;;;2.02;66.21;99139.22;10417519;28;20050;-55
2021/01/01 01:54:42;;;;;;;33.35;12.00;;;;;;;2.10;66.43;99141.38;10418376;28;20107;-55
2021/01/01 01:59:47;;;;;;;40.55;15.05;;;;;;;2.12;66.62;99139.50;10416289;28;20548;-55
2021/01/01 02:04:49;;;;;;;20.02;7.80;;;;;;;2.11;65.93;99130.88;10417448;28;20037;-55
2021/01/01 02:09:51;;;;;;;29.08;11.07;;;;;;;1.99;66.49;99140.22;10417861;28;20065;-54
2021/01/01 02:14:53;;;;;;;25.45;11.27;;;;;;;2.06;66.41;99135.50;10418403;28;20547;-55
2021/01/01 02:20:04;;;;;;;27.42;11.40;;;;;;;2.16;66.32;99136.66;10416371;28;20049;-56
2021/01/01 02:25:10;;;;;;;27.42;9.75;;;;;;;2.21;66.40;99138.94;10418263;28;20222;-54
2021/01/01 02:30:13;;;;;;;22.23;9.40;;;;;;;2.27;66.47;99133.41;10417337;28;20045;-54
2021/01/01 02:35:14;;;;;;;30.65;11.20;;;;;;;2.30;66.60;99128.84;10415917;28;20398;-55
2021/01/01 02:40:17;;;;;;;25.85;9.02;;;;;;;2.36;66.23;99116.44;10415681;28;20053;-55
2021/01/01 02:45:19;;;;;;;29.58;12.13;;;;;;;2.38;66.37;99112.00;10416185;28;20587;-56
2021/01/01 02:50:20;;;;;;;24.77;11.52;;;;;;;2.47;66.16;99119.22;10423028;28;20497;-55
2021/01/01 02:55:23;;;;;;;29.45;11.23;;;;;;;2.49;66.45;99112.16;10422963;28;20045;-55
2021/01/01 03:00:25;;;;;;;33.92;12.90;;;;;;;2.55;66.34;99111.78;10423147;28;20065;-55
2021/01/01 03:05:26;;;;;;;34.38;13.10;;;;;;;2.64;66.17;99113.81;10422669;28;20474;-56
2021/01/01 03:10:29;;;;;;;32.53;12.25;;;;;;;2.67;65.96;99113.63;10422951;28;20470;-57
2021/01/01 03:15:31;;;;;;;63.88;15.95;;;;;;;2.67;66.28;99112.78;10422123;28;20045;-55
2021/01/01 03:20:32;;;;;;;38.30;14.70;;;;;;;2.66;66.40;99117.16;10421816;28;20052;-55
2021/01/01 03:25:35;;;;;;;41.88;15.60;;;;;;;2.62;66.03;99117.47;10437115;28;20111;-58
2021/01/01 03:30:37;;;;;;;56.05;17.48;;;;;;;2.55;66.27;99111.78;10422096;28;20075;-54
2021/01/01 03:35:39;;;;;;;54.45;15.70;;;;;;;2.57;66.81;99119.50;10422783;28;20493;-55
2021/01/01 03:40:42;;;;;;;58.13;13.75;;;;;;;2.66;66.60;99099.00;10421473;28;20061;-56
2021/01/01 03:45:43;;;;;;;36.00;14.25;;;;;;;2.65;65.96;99104.25;10420776;28;20056;-55
2021/01/01 03:50:45;;;;;;;60.05;17.73;;;;;;;2.56;66.20;99113.47;10421366;28;20060;-55
2021/01/01 03:55:48;;;;;;;49.17;18.02;;;;;;;2.46;66.59;99112.34;10421966;28;20049;-55
2021/01/01 04:00:50;;;;;;;54.95;19.00;;;;;;;2.47;66.57;99120.06;10419427;28;20065;-55
2021/01/01 04:05:52;;;;;;;76.78;18.95;;;;;;;2.40;66.85;99110.13;10420678;28;20037;-55
2021/01/01 04:10:54;;;;;;;91.43;21.83;;;;;;;2.30;67.03;99108.09;10420599;28;20045;-62
2021/01/01 04:15:56;;;;;;;56.60;15.10;;;;;;;2.33;66.50;99107.09;10435701;28;20115;-55
2021/01/01 04:20:57;;;;;;;49.10;14.15;;;;;;;2.35;67.11;99114.78;10421144;28;20053;-56
2021/01/01 04:26:00;;;;;;;36.00;14.05;;;;;;;2.34;67.10;99107.91;10420496;28;20045;-53
2021/01/01 04:31:02;;;;;;;38.72;13.85;;;;;;;2.50;67.18;99117.28;10436653;28;20107;-53
2021/01/01 04:36:04;;;;;;;33.00;13.57;;;;;;;2.56;66.24;99116.06;10419215;28;20103;-57
2021/01/01 04:41:09;;;;;;;39.17;13.88;;;;;;;2.57;66.75;99109.94;10421296;28;20569;-55
2021/01/01 04:46:11;;;;;;;58.38;15.10;;;;;;;2.65;66.34;99117.25;10418862;28;20455;-56
2021/01/01 04:51:13;;;;;;;35.65;13.95;;;;;;;2.66;66.22;99108.53;10419807;28;20053;-54
2021/01/01 04:56:15;;;;;;;39.85;12.77;;;;;;;2.68;66.37;99111.84;10434666;28;20042;-56
2021/01/01 05:01:17;;;;;;;32.55;13.23;;;;;;;2.73;66.50;99109.81;10417710;28;20119;-55
2021/01/01 05:06:28;;;;;;;43.35;13.70;;;;;;;2.68;66.45;99112.72;10419400;28;20050;-56
2021/01/01 05:11:30;;;;;;;29.35;10.35;;;;;;;2.66;66.52;99104.19;10417768;28;20060;-55
2021/01/01 05:16:32;;;;;;;28.83;10.93;;;;;;;2.54;66.41;99104.94;10417896;28;20060;-55
2021/01/01 05:21:34;;;;;;;39.63;13.40;;;;;;;2.40;66.54;99094.56;10417885;28;20049;-54
2021/01/01 05:26:39;;;;;;;36.85;13.43;;;;;;;2.41;66.69;99099.69;10417887;28;20127;-55
2021/01/01 05:31:42;;;;;;;31.15;11.93;;;;;;;2.53;66.80;99106.72;10417197;28;20049;-55
2021/01/01 05:36:44;;;;;;;32.15;12.02;;;;;;;2.52;66.44;99109.38;10416932;28;20489;-56
2021/01/01 05:41:48;;;;;;;32.10;12.43;;;;;;;2.54;66.52;99095.38;10417419;28;20053;-56
2021/01/01 05:47:00;;;;;;;;;;;;;;;2.55;66.96;99093.63;10417722;28;20052;-56
2021/01/01 05:52:10;;;;;;;31.35;12.35;;;;;;;2.62;66.45;99092.34;10417507;28;19924;-55
2021/01/01 05:57:14;;;;;;;26.42;10.05;;;;;;;2.59;66.46;99095.13;10416650;28;20532;-56
2021/01/01 06:02:16;;;;;;;42.05;13.57;;;;;;;2.60;66.85;99095.94;10417725;28;20049;-55
2021/01/01 06:07:20;;;;;;;31.85;11.25;;;;;;;2.76;66.82;99089.69;10416839;28;20475;-54
2021/01/01 06:12:26;;;;;;;;;;;;;;;2.90;66.29;99101.00;10417317;28;20376;-54
2021/01/01 06:17:34;;;;;;;35.50;13.43;;;;;;;2.84;66.36;99096.19;10417107;28;19964;-57
2021/01/01 06:22:59;;;;;;;39.15;14.15;;;;;;;2.93;66.00;99096.44;10421104;28;20540;-54
2021/01/01 06:28:02;;;;;;;36.15;13.10;;;;;;;2.94;66.36;99097.25;10424336;28;20045;-56
2021/01/01 06:33:08;;;;;;;27.33;11.63;;;;;;;2.95;66.90;99099.75;10424016;28;20053;-52
2021/01/01 06:38:09;;;;;;;28.13;11.27;;;;;;;2.90;66.17;99095.81;10424744;28;20321;-54
2021/01/01 06:43:12;;;;;;;35.47;12.85;;;;;;;2.88;66.98;99092.47;10425346;28;20046;-55
2021/01/01 06:48:34;;;;;;;30.48;11.98;;;;;;;2.97;66.91;99091.88;10425477;28;20058;-54
2021/01/01 06:53:36;;;;;;;33.72;11.52;;;;;;;2.96;66.19;99085.84;10423641;28;20065;-55
2021/01/01 06:58:39;;;;;;;29.25;11.55;;;;;;;2.91;66.63;99087.06;10425665;28;20061;-58
2021/01/01 07:03:41;;;;;;;27.15;10.85;;;;;;;2.94;66.84;99092.91;10439449;28;20064;-55
2021/01/01 07:08:46;;;;;;;32.95;11.30;;;;;;;2.97;66.60;99086.69;10422557;28;20046;-57
2021/01/01 07:13:50;;;;;;;19.08;7.15;;;;;;;2.91;66.69;99081.88;10421775;28;20373;-55
2021/01/01 07:18:53;;;;;;;34.75;12.38;;;;;;;2.93;66.91;99080.84;10421708;28;20045;-55
2021/01/01 07:23:54;;;;;;;32.67;11.80;;;;;;;3.05;66.69;99088.78;10421870;28;20045;-55
2021/01/01 07:28:58;;;;;;;32.67;12.07;;;;;;;3.07;67.01;99079.97;10422027;28;20054;-54
2021/01/01 07:34:11;;;;;;;32.75;12.52;;;;;;;3.20;66.63;99098.19;10420574;28;20045;-55
2021/01/01 07:39:12;;;;;;;34.63;11.65;;;;;;;3.18;66.59;99085.31;10421088;28;20142;-54
2021/01/01 07:44:19;;;;;;;34.20;12.48;;;;;;;3.03;66.43;99078.50;10420482;28;20049;-57
2021/01/01 07:49:20;;;;;;;32.65;13.18;;;;;;;2.99;66.48;99084.81;10421215;28;20500;-55
2021/01/01 07:54:22;;;;;;;20.40;8.00;;;;;;;2.99;66.98;99095.22;10420860;28;20056;-56
2021/01/01 07:59:25;;;;;;;31.17;11.20;;;;;;;3.01;66.49;99093.34;10420000;28;20053;-55
2021/01/01 08:04:29;;;;;;;27.80;11.53;;;;;;;3.05;67.22;99105.22;10421098;28;20064;-56
2021/01/01 08:09:32;;;;;;;31.88;12.82;;;;;;;3.12;66.35;99083.09;10420683;28;20073;-57
2021/01/01 08:14:35;;;;;;;30.67;11.93;;;;;;;3.19;66.40;99092.16;10421106;28;20144;-54
2021/01/01 08:19:36;;;;;;;34.08;12.90;;;;;;;3.25;67.00;99110.88;10420042;28;20068;-55
2021/01/01 08:24:41;;;;;;;26.95;12.05;;;;;;;3.27;66.17;99103.84;10419257;28;20038;-55
2021/01/01 08:29:45;;;;;;;30.90;13.00;;;;;;;3.20;66.16;99104.22;10419016;28;20497;-56
2021/01/01 08:34:51;;;;;;;27.35;11.20;;;;;;;3.17;66.99;99114.81;10418976;28;20049;-55
2021/01/01 08:40:05;;;;;;;31.92;13.18;;;;;;;3.18;66.88;99106.09;10419506;28;20049;-55
2021/01/01 08:45:09;;;;;;;28.45;11.63;;;;;;;3.23;66.54;99105.78;10419270;28;20520;-55
2021/01/01 08:50:19;;;;;;;30.38;9.75;;;;;;;3.25;66.65;99090.09;10418202;28;20572;-57
2021/01/01 08:55:21;;;;;;;28.13;10.63;;;;;;;3.27;66.22;99093.44;10418766;28;20524;-55
2021/01/01 09:00:25;;;;;;;29.42;10.25;;;;;;;3.31;66.65;99095.72;10417730;28;20065;-53
2021/01/01 09:05:27;;;;;;;28.98;12.00;;;;;;;3.21;66.71;99089.47;10417620;28;20049;-53
2021/01/01 09:10:31;;;;;;;33.25;13.32;;;;;;;3.25;66.72;99096.13;10417893;28;20498;-56
2021/01/01 09:15:33;;;;;;;33.60;13.25;;;;;;;3.30;66.40;99095.84;10420202;28;20049;-54
2021/01/01 09:20:37;;;;;;;27.17;10.13;;;;;;;3.42;66.78;99095.88;10418375;28;20053;-54
2021/01/01 09:25:40;;;;;;;28.30;11.95;;;;;;;3.38;66.84;99086.59;10418273;28;20098;-54
2021/01/01 09:30:49;;;;;;;30.43;12.27;;;;;;;3.36;66.27;99082.44;10418949;28;20486;-56
2021/01/01 09:35:51;;;;;;;25.42;9.93;;;;;;;3.20;66.15;99082.59;10419445;28;20289;-55
2021/01/01 09:40:53;;;;;;;27.10;11.50;;;;;;;3.14;66.43;99083.84;10418669;28;20474;-55
2021/01/01 09:45:55;;;;;;;23.23;9.38;;;;;;;3.20;66.27;99061.81;10417248;28;20450;-55
2021/01/01 09:50:57;;;;;;;29.42;11.27;;;;;;;3.35;67.08;99066.00;10416817;28;20115;-55
2021/01/01 09:55:58;;;;;;;27.98;12.18;;;;;;;3.56;66.97;99063.75;10418789;28;20470;-55
2021/01/01 10:01:01;;;;;;;27.38;11.45;;;;;;;3.57;66.34;99064.59;10425153;28;20073;-55
2021/01/01 10:06:03;;;;;;;36.93;11.80;;;;;;;3.52;66.02;99072.72;10440755;28;20140;-56
2021/01/01 10:11:05;;;;;;;27.88;10.52;;;;;;;3.53;66.00;99066.56;10424931;28;20115;-54
2021/01/01 10:16:08;;;;;;;33.42;13.93;;;;;;;3.42;66.49;99054.28;10424801;28;20487;-57
2021/01/01 10:21:10;;;;;;;31.95;11.82;;;;;;;3.39;66.15;99066.66;10425456;28;20056;-58
2021/01/01 10:26:12;;;;;;;33.47;11.77;;;;;;;3.30;66.48;99047.31;10424127;28;20115;-55
2021/01/01 10:31:21;;;;;;;36.40;15.25;;;;;;;3.23;66.58;99052.09;10424956;28;20049;-56
2021/01/01 10:36:23;;;;;;;37.40;12.90;;;;;;;3.29;66.82;99050.00;10423831;28;20457;-56
2021/01/01 10:41:24;;;;;;;21.90;6.88;;;;;;;3.27;66.43;99042.31;10423297;28;20068;-55
2021/01/01 10:46:27;;;;;;;28.95;11.98;;;;;;;3.10;66.67;99046.00;10424699;28;20053;-54
2021/01/01 10:51:29;;;;;;;29.95;11.80;;;;;;;3.19;66.93;99035.00;10423397;28;20068;-58
2021/01/01 10:56:30;;;;;;;18.65;7.15;;;;;;;3.11;66.30;99042.50;10423087;28;20060;-53
2021/01/01 11:01:33;;;;;;;18.73;7.95;;;;;;;2.86;66.90;99037.19;10422521;28;20143;-55
2021/01/01 11:06:35;;;;;;;27.02;9.85;;;;;;;2.78;67.68;99029.91;10423182;28;20045;-54
2021/01/01 11:11:37;;;;;;;27.70;11.68;;;;;;;2.82;67.83;99027.94;10422575;28;20083;-56
2021/01/01 12:21:18;;;;;;;61.65;21.05;;;;;;;3.51;67.03;99019.09;10418795;28;20567;-55
2021/01/01 12:26:20;;;;;;;65.38;22.75;;;;;;;3.48;67.34;99021.88;10419586;28;20046;-55
2021/01/01 12:31:22;;;;;;;58.70;21.73;;;;;;;3.49;66.71;99005.34;10419333;28;20061;-59
2021/01/01 12:36:24;;;;;;;42.88;14.65;;;;;;;3.56;66.41;99009.19;10418719;28;20375;-56
2021/01/01 12:41:26;;;;;;;36.25;9.40;;;;;;;3.41;66.99;99008.44;10418839;28;20068;-55
2021/01/01 12:46:28;;;;;;;60.22;22.15;;;;;;;3.24;67.22;99026.94;10419059;28;20057;-55
2021/01/01 12:51:31;;;;;;;70.25;23.48;;;;;;;3.14;67.35;98999.88;10419956;28;20056;-55
2021/01/01 12:56:33;;;;;;;46.88;14.20;;;;;;;3.13;67.53;99004.25;10418099;28;20053;-58
2021/01/01 13:01:35;;;;;;;62.55;23.30;;;;;;;3.15;67.42;98993.78;10418476;28;20073;-55
2021/01/01 13:06:37;;;;;;;45.28;13.38;;;;;;;3.25;67.33;99015.59;10420182;28;20057;-59
2021/01/01 13:11:42;;;;;;;81.15;26.45;;;;;;;3.21;67.52;99001.16;10417929;28;20553;-55
2021/01/01 13:16:46;;;;;;;64.35;23.60;;;;;;;3.23;67.06;98997.53;10418169;28;20072;-55
2021/01/01 13:21:48;;;;;;;61.03;21.63;;;;;;;3.25;67.17;98992.22;10418113;28;20132;-57
2021/01/01 13:26:50;;;;;;;59.13;18.10;;;;;;;3.18;67.63;99007.38;10418080;28;20486;-55
2021/01/01 13:31:51;;;;;;;59.83;19.13;;;;;;;3.05;67.44;98995.28;10416506;28;20564;-54
2021/01/01 13:36:54;;;;;;;54.47;20.85;;;;;;;3.06;67.79;99013.38;10417193;28;20045;-55
2021/01/01 13:41:56;;;;;;;73.83;25.90;;;;;;;3.14;67.76;99005.94;10417446;28;20057;-56
2021/01/01 13:46:57;;;;;;;75.45;25.38;;;;;;;3.31;68.00;98998.78;10418206;28;20382;-56
2021/01/01 13:52:03;;;;;;;73.20;24.00;;;;;;;3.44;67.71;98997.03;10417046;28;20505;-55
2021/01/01 13:57:05;;;;;;;74.07;24.20;;;;;;;3.54;67.25;99000.69;10416769;28;20037;-55
2021/01/01 14:02:07;;;;;;;62.05;23.05;;;;;;;3.65;67.06;98997.34;10375494;28;20080;-56
2021/01/01 14:07:10;;;;;;;64.90;21.88;;;;;;;3.64;67.43;98993.09;10376033;28;20038;-54
2021/01/01 14:12:11;;;;;;;61.80;21.30;;;;;;;3.72;67.25;98992.56;10375921;28;20077;-55
2021/01/01 14:17:14;;;;;;;61.17;20.20;;;;;;;3.77;67.19;98990.47;10375206;28;20042;-56
2021/01/01 14:22:16;;;;;;;48.30;18.48;;;;;;;3.71;66.75;98998.69;10375252;28;20050;-56
2021/01/01 14:27:18;;;;;;;59.20;22.17;;;;;;;3.64;67.17;98983.53;10375406;28;20053;-55
2021/01/01 14:32:19;;;;;;;56.95;20.80;;;;;;;3.69;67.55;98997.03;10376306;28;20058;-56
2021/01/01 14:37:22;;;;;;;53.03;19.88;;;;;;;3.78;67.06;98995.56;10375748;28;20471;-55
2021/01/01 14:42:23;;;;;;;59.78;19.83;;;;;;;3.90;66.92;98988.69;10378800;28;20050;-55
2021/01/01 14:47:25;;;;;;;46.65;16.58;;;;;;;3.89;66.96;98979.25;10383922;28;20426;-55
2021/01/01 14:52:28;;;;;;;52.10;19.65;;;;;;;3.85;66.66;98977.81;10382240;28;20058;-55
2021/01/01 14:57:30;;;;;;;42.85;17.15;;;;;;;3.85;67.03;98970.00;10385358;28;20150;-57
2021/01/01 15:02:31;;;;;;;48.67;20.05;;;;;;;3.83;67.16;98967.50;10424410;28;20045;-58
2021/01/01 15:07:34;;;;;;;47.80;18.80;;;;;;;3.86;66.49;98962.06;10422079;28;20056;-55
2021/01/01 15:12:35;;;;;;;25.98;10.75;;;;;;;3.63;66.99;98971.47;10423996;28;20045;-55
2021/01/01 15:17:37;;;;;;;55.22;18.10;;;;;;;3.44;67.54;98950.25;10422483;28;20064;-55
2021/01/01 15:22:40;;;;;;;12.88;5.20;;;;;;;3.41;67.73;98966.03;10422167;28;20053;-55
2021/01/01 15:27:42;;;;;;;27.43;10.30;;;;;;;3.34;67.63;98951.81;10422975;28;20045;-55
2021/01/01 15:32:43;;;;;;;37.13;16.00;;;;;;;3.25;67.42;98952.44;10421342;28;20119;-55
2021/01/01 15:37:46;;;;;;;29.60;12.85;;;;;;;3.18;67.97;98960.63;10421387;28;20482;-55
2021/01/01 15:42:48;;;;;;;21.07;10.20;;;;;;;3.23;68.10;98932.59;10421777;28;20045;-52
2021/01/01 15:47:49;;;;;;;32.90;14.18;;;;;;;3.28;67.87;98952.22;10420675;28;20477;-55
2021/01/01 15:52:52;;;;;;;39.00;14.95;;;;;;;3.29;67.78;98951.28;10419490;28;20049;-55
2021/01/01 15:57:53;;;;;;;44.25;18.20;;;;;;;3.39;68.01;98949.75;10421551;28;20112;-55
2021/01/01 16:02:55;;;;;;;42.95;17.75;;;;;;;3.39;67.48;98958.38;10421327;28;20103;-54
2021/01/01 16:07:57;;;;;;;31.17;11.48;;;;;;;3.45;67.45;98952.75;10421771;28;20049;-56
2021/01/01 16:12:59;;;;;;;25.10;9.63;;;;;;;3.43;67.82;98957.22;10420292;28;20060;-54
2021/01/01 16:18:01;;;;;;;44.33;17.65;;;;;;;3.42;67.90;98957.34;10420303;28;20386;-55
2021/01/01 16:23:03;;;;;;;47.17;16.10;;;;;;;3.45;67.52;98963.16;10421268;28;20049;-55
2021/01/01 16:28:05;;;;;;;44.70;16.95;;;;;;;3.56;67.90;98967.59;10419520;28;20053;-55
2021/01/01 16:33:07;;;;;;;48.25;18.67;;;;;;;3.64;67.73;98969.69;10420076;28;20057;-56
2021/01/01 16:38:09;;;;;;;52.60;20.15;;;;;;;3.81;67.72;98977.16;10419662;28;20046;-58
2021/01/01 16:43:12;;;;;;;46.67;19.17;;;;;;;3.97;66.81;98963.91;10419617;28;20264;-56
2021/01/01 16:48:13;;;;;;;47.92;19.20;;;;;;;4.01;66.86;98964.56;10419401;28;20135;-57
2021/01/01 16:53:16;;;;;;;46.55;18.63;;;;;;;4.07;66.71;98962.34;10418704;28;20042;-58
2021/01/01 16:58:18;;;;;;;55.78;19.92;;;;;;;4.18;66.51;98961.59;10419284;28;20053;-57
2021/01/01 17:03:20;;;;;;;47.47;19.05;;;;;;;4.22;66.35;98964.78;10420816;28;20049;-53
2021/01/01 17:08:22;;;;;;;50.53;19.50;;;;;;;4.25;66.63;98974.97;10419258;28;20513;-57
2021/01/01 17:13:24;;;;;;;61.83;19.58;;;;;;;4.21;66.35;98978.75;10418121;28;20057;-56
2021/01/01 17:18:26;;;;;;;50.78;19.92;;;;;;;4.17;66.57;98975.53;10418588;28;20041;-53
2021/01/01 17:23:28;;;;;;;77.60;25.33;;;;;;;4.11;66.54;98971.59;10419314;28;20053;-55
2021/01/01 17:28:31;;;;;;;51.33;18.63;;;;;;;4.12;66.68;98983.66;10419090;28;20060;-56
2021/01/01 17:33:35;;;;;;;64.43;24.07;;;;;;;4.03;66.67;98968.69;10418395;28;20482;-56
2021/01/01 17:38:38;;;;;;;69.97;26.05;;;;;;;4.01;66.91;98964.56;10419324;28;20056;-57
2021/01/01 17:43:40;;;;;;;63.75;24.92;;;;;;;4.01;67.02;98969.75;10418202;28;20045;-54
2021/01/01 17:48:42;;;;;;;68.53;23.80;;;;;;;3.99;66.71;98962.03;10417571;28;20041;-52
2021/01/01 17:53:45;;;;;;;67.63;24.35;;;;;;;4.00;66.87;98960.28;10418008;28;20083;-55
2021/01/01 17:58:47;;;;;;;82.95;27.55;;;;;;;3.94;67.15;98958.94;10417966;28;20084;-56
2021/01/01 18:03:49;;;;;;;66.90;22.17;;;;;;;3.85;66.88;98951.81;10434148;28;20049;-57
2021/01/01 18:08:52;;;;;;;71.15;24.88;;;;;;;3.78;67.10;98973.94;10418071;28;20104;-55
2021/01/01 18:13:53;;;;;;;91.78;27.23;;;;;;;3.69;67.39;98955.47;10417520;28;20045;-55
2021/01/01 18:18:55;;;;;;;68.75;23.92;;;;;;;3.55;67.42;98949.53;10437543;28;20057;-63
2021/01/01 18:23:58;;;;;;;66.25;25.70;;;;;;;3.51;67.71;98948.91;10426547;28;20450;-55
2021/01/01 18:29:01;;;;;;;78.63;27.63;;;;;;;3.52;67.54;98942.78;10426277;28;20102;-60
2021/01/01 18:34:09;;;;;;;59.15;19.67;;;;;;;3.53;67.48;98960.03;10425769;28;20103;-57
2021/01/01 18:39:11;;;;;;;71.63;24.85;;;;;;;3.47;67.37;98950.03;10425972;28;20045;-56
2021/01/01 18:44:15;;;;;;;79.33;21.37;;;;;;;3.46;67.99;98945.78;10426021;28;20115;-55
2021/01/01 18:49:18;;;;;;;74.97;23.65;;;;;;;3.49;67.64;98958.56;10425443;28;20053;-55
2021/01/01 18:54:29;;;;;;;86.30;21.33;;;;;;;3.50;67.58;98952.44;10423832;28;20045;-55
2021/01/01 18:59:52;;;;;;;97.70;26.95;;;;;;;3.44;67.79;98950.25;10438416;28;20525;-57
2021/01/01 19:05:10;;;;;;;80.90;23.42;;;;;;;3.46;68.04;98954.41;10422800;28;20060;-59
2021/01/01 19:10:13;;;;;;;88.68;24.48;;;;;;;3.47;67.41;98950.03;10422089;28;20583;-54
2021/01/01 19:15:21;;;;;;;50.63;18.90;;;;;;;3.35;67.53;98933.50;10437979;28;20046;-55
2021/01/01 19:20:28;;;;;;;18.85;8.43;;;;;;;3.26;67.80;98960.09;10422772;28;20470;-55
2021/01/01 19:25:32;;;;;;;45.33;14.68;;;;;;;3.23;68.18;98948.19;10422668;28;20086;-55
2021/01/01 19:30:42;;;;;;;55.45;22.38;;;;;;;3.23;68.13;98944.72;10422327;28;20080;-54
2021/01/01 19:36:23;;;;;;;68.50;16.15;;;;;;;3.31;68.28;98942.47;10422512;28;20191;-55
2021/01/01 19:41:43;;;;;;;54.63;19.45;;;;;;;3.37;68.08;98943.81;10422345;28;20474;-54
2021/01/01 19:47:24;;;;;;;56.47;19.70;;;;;;;3.40;67.95;98944.44;10420714;28;20060;-55
2021/01/01 19:52:49;;;;;;;54.10;20.50;;;;;;;3.38;67.87;98942.88;10421969;28;20053;-54
2021/01/01 19:58:16;;;;;;;53.55;20.75;;;;;;;3.42;67.73;98941.75;10423130;28;20054;-55
2021/01/01 20:03:22;;;;;;;47.72;19.45;;;;;;;3.43;67.41;98939.03;10437326;28;20115;-56
2021/01/01 20:08:35;;;;;;;59.58;20.92;;;;;;;3.44;67.96;98939.84;10421715;28;20045;-55
2021/01/01 20:13:41;;;;;;;35.78;11.88;;;;;;;3.44;67.50;98919.91;10439425;28;20057;-60
2021/01/01 20:18:46;;;;;;;70.80;24.38;;;;;;;3.27;67.71;98920.22;10425030;28;20045;-54
2021/01/01 20:23:51;;;;;;;57.55;20.58;;;;;;;3.14;67.41;98912.44;10440014;28;20107;-54
2021/01/01 20:29:01;;;;;;;41.65;19.02;;;;;;;3.14;68.15;98917.63;10422608;28;20045;-55
2021/01/01 20:34:18;;;;;;;45.42;14.43;;;;;;;3.30;67.65;98927.00;10437338;28;20051;-55
2021/01/01 20:40:07;;;;;;;46.58;18.38;;;;;;;3.32;67.90;98925.94;10419754;28;20060;-56
2021/01/01 20:46:00;;;;;;;50.50;20.13;;;;;;;3.34;67.99;98933.63;10420390;28;20076;-55
2021/01/01 20:56:45;;;;;;;57.65;19.85;;;;;;;3.34;67.12;98915.44;10394088;28;20106;-55
2021/01/01 21:01:48;;;;;;;39.47;13.68;;;;;;;3.34;67.67;98923.25;10434369;28;20143;-54
2021/01/01 21:06:53;;;;;;;39.58;17.67;;;;;;;3.26;67.48;98915.13;10418210;28;20049;-55
2021/01/01 21:12:16;;;;;;;55.55;18.40;;;;;;;3.27;67.31;98924.59;10417583;28;20056;-55
2021/01/01 21:17:27;;;;;;;68.68;21.13;;;;;;;3.38;67.45;98925.50;10418665;28;20045;-55
2021/01/01 21:23:06;;;;;;;69.53;23.40;;;;;;;3.39;67.28;98941.97;10418035;28;20053;-54
2021/01/01 21:28:56;;;;;;;74.88;22.58;;;;;;;3.53;67.42;98936.63;10417654;28;20061;-55
2021/01/01 21:34:26;;;;;;;70.50;17.45;;;;;;;3.64;67.07;98944.53;10434036;28;20426;-56
2021/01/01 21:40:03;;;;;;;57.97;18.15;;;;;;;3.60;66.41;98935.28;10418904;28;20056;-56
2021/01/01 21:45:40;;;;;;;68.75;23.48;;;;;;;3.53;66.84;98935.81;10417415;28;20045;-56
2021/01/01 21:50:48;;;;;;;29.35;9.10;;;;;;;3.59;66.96;98936.22;10410247;28;20061;-55
2021/01/01 21:55:51;;;;;;;60.30;21.85;;;;;;;3.49;66.44;98931.75;10428138;28;20045;-54
2021/01/01 22:00:53;;;;;;;62.85;21.48;;;;;;;3.42;66.95;98941.75;10425003;28;20073;-55
2021/01/01 22:05:56;;;;;;;62.15;17.73;;;;;;;3.34;67.22;98929.25;10425310;28;20430;-56
2021/01/01 22:10:58;;;;;;;32.03;9.93;;;;;;;3.22;66.67;98935.28;10425397;28;20045;-55
2021/01/01 22:15:59;;;;;;;50.60;15.88;;;;;;;3.09;66.89;98913.69;10426018;28;20049;-55
2021/01/01 22:21:02;;;;;;;59.13;20.70;;;;;;;3.05;67.44;98954.59;10426332;28;20054;-55
2021/01/01 22:26:04;;;;;;;59.63;18.90;;;;;;;3.16;67.27;98946.09;10424847;28;20045;-57
2021/01/01 22:31:06;;;;;;;61.15;20.23;;;;;;;3.20;67.61;98952.72;10423851;28;20312;-55
2021/01/01 22:36:09;;;;;;;47.60;18.98;;;;;;;3.15;67.06;98932.28;10424499;28;20060;-57
2021/01/01 22:41:10;;;;;;;63.70;21.65;;;;;;;3.25;67.41;98936.84;10423435;28;20049;-55
2021/01/01 22:46:12;;;;;;;57.45;21.23;;;;;;;3.38;67.12;98948.06;10423492;28;20049;-55
2021/01/01 22:51:15;;;;;;;53.20;21.38;;;;;;;3.44;66.80;98945.06;10423211;28;20049;-55
2021/01/01 22:56:17;;;;;;;72.63;20.83;;;;;;;3.43;67.06;98938.19;10423808;28;20061;-55
2021/01/01 23:01:20;;;;;;;64.38;23.05;;;;;;;3.40;66.68;98944.44;10423390;28;20494;-54
2021/01/01 23:06:24;;;;;;;63.95;23.17;;;;;;;3.45;66.64;98936.34;10423735;28;20080;-55
2021/01/01 23:11:29;;;;;;;71.97;23.02;;;;;;;3.54;66.86;98938.31;10422644;28;20041;-56
2021/01/01 23:16:33;;;;;;;62.95;21.45;;;;;;;3.65;66.09;98935.78;10422082;28;20045;-56
2021/01/01 23:21:44;;;;;;;54.00;16.50;;;;;;;3.64;66.17;98947.13;10423781;28;20049;-55
2021/01/01 23:26:50;;;;;;;59.53;19.80;;;;;;;3.57;66.66;98940.69;10421703;28;20045;-55
2021/01/01 23:32:45;;;;;;;65.40;21.38;;;;;;;3.52;66.36;98942.78;10422173;28;20045;-57
2021/01/01 23:38:14;;;;;;;54.75;21.30;;;;;;;3.58;66.63;98933.72;10332979;28;20174;-55
2021/01/01 23:43:24;;;;;;;62.55;20.15;;;;;;;3.61;66.64;98939.53;10408199;28;20053;-55
2021/01/01 23:48:28;;;;;;;70.72;21.80;;;;;;;3.61;66.62;98939.53;10422146;28;20445;-56
2021/01/01 23:53:31;;;;;;;58.25;20.52;;;;;;;3.64;66.70;98941.09;10421177;28;20041;-54
2021/01/01 23:58:33;;;;;;;64.65;22.35;;;;;;;3.67;66.36;98936.53;10420443;28;20072;-55
